createdAt,value
2022-12-04T00:00:52.224Z,20.46
2022-12-04T00:01:52.230Z,20.50
2022-12-04T00:02:52.260Z,20.50
2022-12-04T00:03:52.224Z,20.48
2022-12-04T00:04:52.292Z,20.50
2022-12-04T00:05:52.178Z,20.48
2022-12-04T00:06:58.395Z,20.46
2022-12-04T00:07:52.238Z,20.48
2022-12-04T00:08:52.143Z,20.46
2022-12-04T00:09:52.350Z,20.46
2022-12-04T00:10:52.111Z,20.46
2022-12-04T00:11:52.114Z,20.46
2022-12-04T00:12:52.089Z,20.46
2022-12-04T00:13:52.102Z,20.48
2022-12-04T00:15:24.032Z,20.44
2022-12-04T00:15:52.157Z,20.44
2022-12-04T00:16:52.089Z,20.44
2022-12-04T00:17:52.047Z,20.48
2022-12-04T00:18:52.026Z,20.46
2022-12-04T00:19:52.264Z,20.48
2022-12-04T00:20:52.014Z,20.44
2022-12-04T00:21:52.030Z,20.46
2022-12-04T00:22:51.980Z,20.46
2022-12-04T00:23:51.984Z,20.48
2022-12-04T00:24:51.963Z,20.44
2022-12-04T00:25:51.962Z,20.46
2022-12-04T00:26:51.984Z,20.46
2022-12-04T00:27:51.992Z,20.48
2022-12-04T00:28:51.916Z,20.46
2022-12-04T00:29:52.248Z,20.48
2022-12-04T00:30:51.901Z,20.46
2022-12-04T00:31:52.052Z,20.46
2022-12-04T00:32:51.895Z,20.46
2022-12-04T00:33:51.889Z,20.46
2022-12-04T00:34:51.854Z,20.48
2022-12-04T00:35:51.855Z,20.44
2022-12-04T00:36:51.833Z,20.46
2022-12-04T00:37:51.838Z,20.46
2022-12-04T00:38:51.833Z,20.46
2022-12-04T00:39:51.978Z,20.46
2022-12-04T00:40:51.793Z,20.46
2022-12-04T00:41:51.797Z,20.48
2022-12-04T00:42:51.773Z,20.46
2022-12-04T00:43:51.772Z,20.44
2022-12-04T00:44:51.773Z,20.48
2022-12-04T00:45:51.811Z,20.46
2022-12-04T00:46:51.731Z,20.46
2022-12-04T00:47:51.735Z,20.46
2022-12-04T00:48:51.712Z,20.44
2022-12-04T00:49:51.711Z,20.44
2022-12-04T00:50:51.711Z,20.42
2022-12-04T00:51:51.697Z,20.48
2022-12-04T00:52:51.669Z,20.44
2022-12-04T00:53:51.680Z,20.42
2022-12-04T00:54:51.646Z,20.44
2022-12-04T00:55:51.650Z,20.44
2022-12-04T00:56:51.649Z,20.44
2022-12-04T00:57:55.739Z,20.46
2022-12-04T00:58:51.616Z,20.48
2022-12-04T00:59:51.756Z,20.44
2022-12-04T01:00:51.631Z,20.44
2022-12-04T01:01:51.620Z,20.46
2022-12-04T01:02:51.608Z,20.46
2022-12-04T01:03:51.573Z,20.44
2022-12-04T01:04:51.549Z,20.44
2022-12-04T01:05:51.555Z,20.48
2022-12-04T01:06:51.523Z,20.44
2022-12-04T01:07:51.626Z,20.46
2022-12-04T01:08:51.502Z,20.46
2022-12-04T01:09:51.580Z,20.48
2022-12-04T01:10:51.482Z,20.46
2022-12-04T01:11:51.491Z,20.46
2022-12-04T01:12:51.482Z,20.46
2022-12-04T01:13:51.468Z,20.44
2022-12-04T01:14:51.447Z,20.46
2022-12-04T01:15:51.442Z,20.46
2022-12-04T01:16:51.504Z,20.46
2022-12-04T01:17:51.419Z,20.44
2022-12-04T01:18:51.420Z,20.48
2022-12-04T01:19:51.407Z,20.48
2022-12-04T01:20:51.378Z,20.46
2022-12-04T01:21:51.380Z,20.42
2022-12-04T01:22:51.355Z,20.46
2022-12-04T01:23:51.362Z,20.44
2022-12-04T01:24:51.361Z,20.44
2022-12-04T01:25:51.342Z,20.44
2022-12-04T01:26:51.315Z,20.44
2022-12-04T01:27:51.313Z,20.44
2022-12-04T01:28:51.288Z,20.44
2022-12-04T01:29:51.317Z,20.46
2022-12-04T01:30:51.287Z,20.44
2022-12-04T01:31:51.308Z,20.46
2022-12-04T01:32:51.243Z,20.46
2022-12-04T01:33:51.256Z,20.44
2022-12-04T01:34:51.224Z,20.44
2022-12-04T01:35:51.257Z,20.46
2022-12-04T01:36:51.201Z,20.46
2022-12-04T01:37:51.211Z,20.44
2022-12-04T01:38:51.182Z,20.46
2022-12-04T01:39:51.184Z,20.44
2022-12-04T01:40:51.156Z,20.44
2022-12-04T01:41:51.180Z,20.46
2022-12-04T01:42:51.134Z,20.46
2022-12-04T01:43:51.167Z,20.44
2022-12-04T01:44:51.113Z,20.46
2022-12-04T01:45:51.161Z,20.48
2022-12-04T01:46:51.093Z,20.46
2022-12-04T01:47:51.092Z,20.48
2022-12-04T01:48:51.068Z,20.48
2022-12-04T01:49:51.094Z,20.46
2022-12-04T01:50:51.050Z,20.44
2022-12-04T01:51:51.048Z,20.48
2022-12-04T01:52:51.030Z,20.48
2022-12-04T01:53:51.053Z,20.48
2022-12-04T01:54:51.002Z,20.46
2022-12-04T01:55:51.028Z,20.48
2022-12-04T01:56:51.000Z,20.48
2022-12-04T01:57:50.987Z,20.48
2022-12-04T01:58:50.961Z,20.48
2022-12-04T01:59:50.959Z,20.48
2022-12-04T02:00:51.856Z,20.50
2022-12-04T02:01:51.096Z,20.48
2022-12-04T02:02:50.993Z,20.46
2022-12-04T02:03:50.920Z,20.46
2022-12-04T02:04:50.889Z,20.48
2022-12-04T02:05:50.898Z,20.46
2022-12-04T02:06:50.868Z,20.50
2022-12-04T02:07:50.967Z,20.48
2022-12-04T02:08:50.850Z,20.48
2022-12-04T02:09:50.848Z,20.50
2022-12-04T02:10:50.821Z,20.48
2022-12-04T02:11:50.834Z,20.50
2022-12-04T02:12:50.804Z,20.51
2022-12-04T02:13:50.832Z,20.50
2022-12-04T02:14:50.782Z,20.48
2022-12-04T02:15:50.784Z,20.48
2022-12-04T02:16:50.923Z,20.48
2022-12-04T02:17:50.760Z,20.50
2022-12-04T02:18:50.736Z,20.50
2022-12-04T02:19:50.769Z,20.50
2022-12-04T02:20:50.718Z,20.50
2022-12-04T02:21:50.725Z,20.48
2022-12-04T02:22:50.694Z,20.48
2022-12-04T02:23:50.708Z,20.50
2022-12-04T02:24:50.674Z,20.48
2022-12-04T02:25:50.703Z,20.48
2022-12-04T02:26:50.652Z,20.48
2022-12-04T02:27:50.657Z,20.48
2022-12-04T02:28:50.629Z,20.48
2022-12-04T02:29:50.649Z,20.48
2022-12-04T02:30:50.661Z,20.50
2022-12-04T02:31:50.632Z,20.48
2022-12-04T02:32:50.603Z,20.48
2022-12-04T02:33:50.623Z,20.50
2022-12-04T02:34:50.563Z,20.48
2022-12-04T02:35:50.569Z,20.50
2022-12-04T02:36:50.542Z,20.48
2022-12-04T02:37:50.544Z,20.48
2022-12-04T02:38:50.523Z,20.48
2022-12-04T02:39:50.543Z,20.48
2022-12-04T02:40:50.503Z,20.48
2022-12-04T02:41:50.532Z,20.46
2022-12-04T02:42:50.477Z,20.46
2022-12-04T02:43:50.492Z,20.48
2022-12-04T02:44:50.455Z,20.48
2022-12-04T02:45:50.566Z,20.48
2022-12-04T02:46:50.431Z,20.50
2022-12-04T02:47:50.437Z,20.48
2022-12-04T02:48:50.414Z,20.48
2022-12-04T02:49:50.417Z,20.48
2022-12-04T02:50:50.389Z,20.50
2022-12-04T02:51:50.429Z,20.50
2022-12-04T02:52:50.370Z,20.48
2022-12-04T02:53:50.382Z,20.48
2022-12-04T02:54:50.347Z,20.50
2022-12-04T02:55:50.351Z,20.48
2022-12-04T02:56:50.333Z,20.46
2022-12-04T02:57:50.361Z,20.44
2022-12-04T02:58:50.305Z,20.48
2022-12-04T02:59:50.332Z,20.48
2022-12-04T03:00:50.338Z,20.48
2022-12-04T03:01:50.353Z,20.48
2022-12-04T03:02:50.334Z,20.46
2022-12-04T03:03:50.290Z,20.44
2022-12-04T03:04:50.241Z,20.46
2022-12-04T03:05:50.249Z,20.48
2022-12-04T03:06:50.236Z,20.46
2022-12-04T03:07:50.327Z,20.46
2022-12-04T03:08:50.246Z,20.48
2022-12-04T03:09:50.197Z,20.46
2022-12-04T03:10:50.173Z,20.48
2022-12-04T03:11:50.180Z,20.44
2022-12-04T03:12:50.155Z,20.44
2022-12-04T03:13:50.158Z,20.44
2022-12-04T03:14:50.158Z,20.44
2022-12-04T03:15:50.147Z,20.46
2022-12-04T03:16:50.200Z,20.44
2022-12-04T03:17:50.121Z,20.44
2022-12-04T03:18:50.122Z,20.44
2022-12-04T03:19:50.097Z,20.44
2022-12-04T03:20:50.073Z,20.44
2022-12-04T03:21:50.083Z,20.44
2022-12-04T03:22:50.049Z,20.42
2022-12-04T03:23:50.058Z,20.46
2022-12-04T03:24:50.052Z,20.46
2022-12-04T03:25:50.037Z,20.46
2022-12-04T03:26:50.007Z,20.46
2022-12-04T03:27:50.015Z,20.48
2022-12-04T03:28:49.989Z,20.50
2022-12-04T03:29:49.991Z,20.48
2022-12-04T03:30:50.083Z,20.48
2022-12-04T03:31:49.967Z,20.51
2022-12-04T03:32:49.943Z,20.50
2022-12-04T03:33:49.949Z,20.51
2022-12-04T03:34:49.944Z,20.51
2022-12-04T03:35:49.932Z,20.51
2022-12-04T03:36:49.935Z,20.51
2022-12-04T03:37:49.922Z,20.53
2022-12-04T03:38:49.883Z,20.53
2022-12-04T03:39:49.882Z,20.51
2022-12-04T03:40:49.862Z,20.53
2022-12-04T03:41:50.255Z,20.53
2022-12-04T03:42:49.853Z,20.51
2022-12-04T03:43:49.834Z,20.53
2022-12-04T03:44:49.813Z,20.53
2022-12-04T03:45:49.852Z,20.53
2022-12-04T03:46:49.793Z,20.53
2022-12-04T03:47:49.823Z,20.51
2022-12-04T03:48:49.779Z,20.53
2022-12-04T03:49:49.780Z,20.53
2022-12-04T03:50:49.748Z,20.54
2022-12-04T03:51:49.750Z,20.51
2022-12-04T03:52:49.725Z,20.54
2022-12-04T03:53:49.755Z,20.50
2022-12-04T03:54:49.704Z,20.53
2022-12-04T03:55:49.719Z,20.53
2022-12-04T03:56:49.683Z,20.51
2022-12-04T03:57:49.710Z,20.51
2022-12-04T03:58:49.665Z,20.50
2022-12-04T03:59:55.254Z,20.51
2022-12-04T04:00:49.646Z,20.51
2022-12-04T04:01:49.777Z,20.51
2022-12-04T04:02:49.704Z,20.50
2022-12-04T04:03:49.637Z,20.50
2022-12-04T04:04:49.630Z,20.50
2022-12-04T04:05:49.603Z,20.50
2022-12-04T04:06:49.584Z,20.51
2022-12-04T04:07:49.664Z,20.51
2022-12-04T04:08:49.560Z,20.50
2022-12-04T04:09:49.585Z,20.51
2022-12-04T04:10:49.538Z,20.46
2022-12-04T04:11:49.546Z,20.48
2022-12-04T04:12:49.531Z,20.50
2022-12-04T04:13:49.511Z,20.50
2022-12-04T04:14:49.502Z,20.44
2022-12-04T04:15:49.578Z,20.46
2022-12-04T04:16:49.483Z,20.48
2022-12-04T04:17:49.482Z,20.46
2022-12-04T04:18:49.471Z,20.48
2022-12-04T04:19:49.438Z,20.44
2022-12-04T04:20:49.445Z,20.46
2022-12-04T04:21:49.418Z,20.48
2022-12-04T04:22:52.994Z,20.48
2022-12-04T04:23:49.418Z,20.51
2022-12-04T04:24:49.392Z,20.51
2022-12-04T04:25:49.387Z,20.51
2022-12-04T04:26:49.393Z,20.51
2022-12-04T04:27:49.346Z,20.53
2022-12-04T04:28:49.352Z,20.51
2022-12-04T04:29:52.587Z,20.54
2022-12-04T04:30:49.408Z,20.53
2022-12-04T04:31:49.301Z,20.54
2022-12-04T04:32:49.308Z,20.56
2022-12-04T04:33:49.281Z,20.56
2022-12-04T04:34:49.299Z,20.56
2022-12-04T04:35:49.258Z,20.54
2022-12-04T04:36:49.286Z,20.53
2022-12-04T04:37:49.236Z,20.54
2022-12-04T04:38:49.261Z,20.51
2022-12-04T04:39:49.216Z,20.51
2022-12-04T04:40:49.222Z,20.53
2022-12-04T04:41:49.211Z,20.51
2022-12-04T04:42:49.194Z,20.53
2022-12-04T04:43:49.171Z,20.54
2022-12-04T04:44:49.225Z,20.57
2022-12-04T04:45:49.147Z,20.61
2022-12-04T04:46:49.234Z,20.61
2022-12-04T04:47:49.127Z,20.63
2022-12-04T04:48:49.166Z,20.64
2022-12-04T04:49:49.105Z,20.63
2022-12-04T04:50:49.127Z,20.64
2022-12-04T04:51:49.079Z,20.63
2022-12-04T04:52:49.111Z,20.63
2022-12-04T04:53:49.061Z,20.63
2022-12-04T04:54:49.059Z,20.60
2022-12-04T04:55:49.036Z,20.60
2022-12-04T04:56:49.036Z,20.60
2022-12-04T04:57:49.015Z,20.60
2022-12-04T04:58:49.081Z,20.61
2022-12-04T04:59:49.012Z,20.61
2022-12-04T05:00:49.002Z,20.60
2022-12-04T05:01:49.077Z,20.60
2022-12-04T05:02:49.050Z,20.60
2022-12-04T05:03:48.950Z,20.58
2022-12-04T05:04:48.982Z,20.60
2022-12-04T05:05:48.928Z,20.60
2022-12-04T05:06:48.941Z,20.60
2022-12-04T05:07:48.978Z,20.57
2022-12-04T05:08:48.916Z,20.58
2022-12-04T05:09:48.881Z,20.58
2022-12-04T05:10:48.916Z,20.57
2022-12-04T05:11:48.860Z,20.58
2022-12-04T05:12:48.869Z,20.57
2022-12-04T05:13:48.837Z,20.56
2022-12-04T05:14:48.840Z,20.56
2022-12-04T05:15:48.858Z,20.56
2022-12-04T05:16:48.839Z,20.57
2022-12-04T05:17:48.800Z,20.53
2022-12-04T05:18:48.800Z,20.54
2022-12-04T05:19:48.769Z,20.54
2022-12-04T05:20:48.769Z,20.53
2022-12-04T05:21:48.751Z,20.53
2022-12-04T05:22:48.794Z,20.51
2022-12-04T05:23:48.725Z,20.53
2022-12-04T05:24:48.730Z,20.53
2022-12-04T05:25:48.703Z,20.51
2022-12-04T05:26:48.708Z,20.53
2022-12-04T05:27:48.682Z,20.53
2022-12-04T05:28:48.710Z,20.51
2022-12-04T05:29:48.677Z,20.51
2022-12-04T05:30:48.696Z,20.50
2022-12-04T05:31:48.735Z,20.51
2022-12-04T05:32:48.654Z,20.50
2022-12-04T05:33:48.625Z,20.51
2022-12-04T05:34:48.648Z,20.51
2022-12-04T05:35:48.600Z,20.51
2022-12-04T05:36:48.603Z,20.51
2022-12-04T05:37:48.588Z,20.51
2022-12-04T05:38:48.595Z,20.51
2022-12-04T05:39:48.551Z,20.51
2022-12-04T05:40:48.575Z,20.50
2022-12-04T05:41:48.553Z,20.50
2022-12-04T05:42:48.537Z,20.50
2022-12-04T05:43:48.509Z,20.51
2022-12-04T05:44:48.528Z,20.50
2022-12-04T05:45:48.487Z,20.50
2022-12-04T05:46:48.581Z,20.50
2022-12-04T05:47:48.504Z,20.50
2022-12-04T05:48:48.473Z,20.50
2022-12-04T05:49:48.439Z,20.50
2022-12-04T05:50:48.439Z,20.51
2022-12-04T05:51:48.417Z,20.51
2022-12-04T05:52:48.423Z,20.51
2022-12-04T05:53:48.425Z,20.56
2022-12-04T05:54:48.417Z,20.60
2022-12-04T05:55:48.379Z,20.63
2022-12-04T05:56:48.382Z,20.64
2022-12-04T05:57:48.353Z,20.66
2022-12-04T05:58:48.365Z,20.68
2022-12-04T05:59:48.350Z,20.71
2022-12-04T06:00:48.334Z,20.73
2022-12-04T06:01:48.476Z,20.73
2022-12-04T06:02:48.357Z,20.73
2022-12-04T06:03:48.283Z,20.76
2022-12-04T06:04:48.291Z,20.76
2022-12-04T06:05:48.314Z,20.76
2022-12-04T06:06:48.270Z,20.78
2022-12-04T06:07:48.351Z,20.78
2022-12-04T06:08:48.257Z,20.79
2022-12-04T06:09:48.220Z,20.81
2022-12-04T06:10:48.226Z,20.81
2022-12-04T06:11:48.219Z,20.81
2022-12-04T06:12:48.204Z,20.81
2022-12-04T06:13:48.176Z,20.83
2022-12-04T06:14:48.209Z,20.81
2022-12-04T06:15:48.163Z,20.83
2022-12-04T06:16:48.288Z,20.82
2022-12-04T06:17:48.139Z,20.83
2022-12-04T06:18:48.137Z,20.83
2022-12-04T06:19:48.195Z,20.82
2022-12-04T06:20:48.248Z,20.82
2022-12-04T06:21:48.090Z,20.81
2022-12-04T06:22:48.104Z,20.82
2022-12-04T06:23:48.081Z,20.81
2022-12-04T06:24:48.067Z,20.82
2022-12-04T06:25:48.059Z,20.79
2022-12-04T06:27:18.822Z,20.75
2022-12-04T06:27:48.024Z,20.75
2022-12-04T06:28:48.022Z,20.73
2022-12-04T06:29:47.997Z,20.73
2022-12-04T06:30:48.019Z,20.71
2022-12-04T06:31:48.092Z,20.71
2022-12-04T06:32:48.010Z,20.66
2022-12-04T06:33:47.954Z,20.64
2022-12-04T06:34:47.961Z,20.64
2022-12-04T06:35:47.932Z,20.61
2022-12-04T06:36:47.937Z,20.60
2022-12-04T06:37:47.916Z,20.58
2022-12-04T06:38:47.951Z,20.58
2022-12-04T06:39:47.912Z,20.54
2022-12-04T06:40:47.897Z,20.56
2022-12-04T06:41:47.923Z,20.54
2022-12-04T06:42:47.885Z,20.54
2022-12-04T06:43:47.868Z,20.53
2022-12-04T06:44:47.876Z,20.53
2022-12-04T06:45:47.916Z,20.53
2022-12-04T06:46:49.197Z,20.53
2022-12-04T06:47:47.816Z,20.51
2022-12-04T06:48:47.817Z,20.51
2022-12-04T06:49:47.780Z,20.53
2022-12-04T06:50:47.788Z,20.53
2022-12-04T06:51:47.761Z,20.53
2022-12-04T06:52:47.789Z,20.51
2022-12-04T06:53:47.738Z,20.53
2022-12-04T06:54:47.752Z,20.51
2022-12-04T06:55:47.736Z,20.53
2022-12-04T06:56:47.740Z,20.53
2022-12-04T06:57:47.693Z,20.53
2022-12-04T06:58:47.650Z,20.53
2022-12-04T06:59:47.618Z,20.53
2022-12-04T07:00:47.677Z,20.51
2022-12-04T07:01:47.617Z,20.51
2022-12-04T07:02:47.730Z,20.51
2022-12-04T07:03:51.241Z,20.51
2022-12-04T07:04:47.584Z,20.53
2022-12-04T07:05:47.607Z,20.53
2022-12-04T07:06:47.612Z,20.54
2022-12-04T07:07:47.693Z,20.53
2022-12-04T07:08:47.627Z,20.53
2022-12-04T07:09:47.567Z,20.53
2022-12-04T07:10:47.564Z,20.53
2022-12-04T07:11:47.543Z,20.53
2022-12-04T07:12:47.548Z,20.53
2022-12-04T07:13:47.521Z,20.51
2022-12-04T07:14:47.548Z,20.53
2022-12-04T07:15:47.502Z,20.53
2022-12-04T07:16:47.587Z,20.53
2022-12-04T07:17:47.478Z,20.53
2022-12-04T07:18:47.482Z,20.53
2022-12-04T07:19:47.458Z,20.53
2022-12-04T07:20:47.475Z,20.50
2022-12-04T07:21:47.432Z,20.51
2022-12-04T07:22:47.439Z,20.50
2022-12-04T07:23:47.412Z,20.50
2022-12-04T07:24:47.442Z,20.51
2022-12-04T07:25:47.413Z,20.50
2022-12-04T07:26:47.398Z,20.50
2022-12-04T07:27:47.368Z,20.50
2022-12-04T07:28:47.379Z,20.50
2022-12-04T07:29:47.357Z,20.50
2022-12-04T07:30:47.352Z,20.50
2022-12-04T07:31:47.431Z,20.51
2022-12-04T07:32:47.325Z,20.50
2022-12-04T07:33:47.301Z,20.50
2022-12-04T07:34:47.311Z,20.50
2022-12-04T07:35:47.282Z,20.50
2022-12-04T07:36:47.314Z,20.50
2022-12-04T07:37:47.276Z,20.51
2022-12-04T07:38:47.260Z,20.50
2022-12-04T07:39:47.239Z,20.50
2022-12-04T07:40:47.238Z,20.50
2022-12-04T07:41:47.213Z,20.50
2022-12-04T07:42:47.242Z,20.48
2022-12-04T07:43:47.220Z,20.50
2022-12-04T07:44:47.198Z,20.50
2022-12-04T07:45:47.207Z,20.50
2022-12-04T07:46:47.198Z,20.48
2022-12-04T07:47:47.150Z,20.50
2022-12-04T07:48:47.160Z,20.50
2022-12-04T07:49:47.152Z,20.50
2022-12-04T07:50:47.136Z,20.50
2022-12-04T07:51:47.111Z,20.48
2022-12-04T07:52:47.126Z,20.48
2022-12-04T07:53:47.088Z,20.46
2022-12-04T07:54:47.094Z,20.48
2022-12-04T07:55:47.088Z,20.44
2022-12-04T07:56:47.074Z,20.48
2022-12-04T07:57:47.082Z,20.44
2022-12-04T07:58:47.071Z,20.46
2022-12-04T07:59:47.040Z,20.44
2022-12-04T08:00:47.051Z,20.46
2022-12-04T08:01:47.047Z,20.44
2022-12-04T08:02:47.003Z,20.44
2022-12-04T08:03:48.530Z,20.44
2022-12-04T08:04:47.098Z,20.42
2022-12-04T08:05:46.980Z,20.42
2022-12-04T08:06:46.995Z,20.46
2022-12-04T08:07:47.004Z,20.44
2022-12-04T08:08:46.955Z,20.44
2022-12-04T08:09:46.920Z,20.42
2022-12-04T08:10:46.920Z,20.48
2022-12-04T08:11:46.895Z,20.42
2022-12-04T08:12:46.921Z,20.46
2022-12-04T08:13:46.879Z,20.44
2022-12-04T08:14:46.880Z,20.44
2022-12-04T08:15:46.856Z,20.42
2022-12-04T08:16:52.298Z,20.42
2022-12-04T08:17:46.856Z,20.42
2022-12-04T08:18:47.118Z,20.42
2022-12-04T08:19:46.810Z,20.42
2022-12-04T08:20:46.824Z,20.42
2022-12-04T08:21:46.788Z,20.42
2022-12-04T08:22:46.792Z,20.41
2022-12-04T08:23:46.817Z,20.42
2022-12-04T08:24:46.771Z,20.41
2022-12-04T08:25:46.756Z,20.41
2022-12-04T08:26:46.777Z,20.41
2022-12-04T08:27:47.754Z,20.40
2022-12-04T08:28:46.743Z,20.41
2022-12-04T08:29:46.707Z,20.40
2022-12-04T08:30:46.723Z,20.38
2022-12-04T08:31:46.714Z,20.38
2022-12-04T08:32:46.705Z,20.41
2022-12-04T08:33:46.687Z,20.37
2022-12-04T08:34:49.875Z,20.40
2022-12-04T08:35:46.666Z,20.38
2022-12-04T08:36:46.637Z,20.38
2022-12-04T08:37:46.658Z,20.38
2022-12-04T08:38:46.635Z,20.38
2022-12-04T08:39:46.660Z,20.37
2022-12-04T08:40:46.618Z,20.37
2022-12-04T08:41:46.646Z,20.38
2022-12-04T08:42:46.577Z,20.38
2022-12-04T08:43:46.573Z,20.40
2022-12-04T08:44:46.548Z,20.38
2022-12-04T08:45:46.613Z,20.37
2022-12-04T08:46:46.598Z,20.35
2022-12-04T08:47:52.047Z,20.37
2022-12-04T08:48:46.514Z,20.38
2022-12-04T08:49:46.523Z,20.35
2022-12-04T08:50:46.489Z,20.35
2022-12-04T08:51:46.498Z,20.35
2022-12-04T08:52:46.485Z,20.37
2022-12-04T08:53:46.475Z,20.38
2022-12-04T08:54:46.445Z,20.38
2022-12-04T08:55:46.452Z,20.37
2022-12-04T08:56:46.426Z,20.37
2022-12-04T08:57:46.448Z,20.37
2022-12-04T08:58:46.420Z,20.35
2022-12-04T08:59:46.407Z,20.37
2022-12-04T09:00:46.382Z,20.35
2022-12-04T09:01:46.478Z,20.35
2022-12-04T09:02:46.362Z,20.37
2022-12-04T09:03:46.373Z,20.34
2022-12-04T09:04:46.421Z,20.37
2022-12-04T09:05:46.355Z,20.37
2022-12-04T09:06:46.320Z,20.35
2022-12-04T09:07:46.387Z,20.34
2022-12-04T09:08:46.297Z,20.35
2022-12-04T09:09:48.440Z,20.37
2022-12-04T09:10:46.275Z,20.38
2022-12-04T09:11:46.308Z,20.35
2022-12-04T09:12:46.271Z,20.34
2022-12-04T09:13:46.263Z,20.34
2022-12-04T09:14:46.250Z,20.34
2022-12-04T09:15:46.363Z,20.37
2022-12-04T09:16:46.218Z,20.34
2022-12-04T09:17:46.176Z,20.35
2022-12-04T09:18:46.186Z,20.37
2022-12-04T09:19:46.136Z,20.34
2022-12-04T09:20:46.195Z,20.37
2022-12-04T09:21:46.168Z,20.35
2022-12-04T09:23:03.289Z,20.34
2022-12-04T09:23:46.195Z,20.35
2022-12-04T09:24:46.069Z,20.35
2022-12-04T09:25:46.128Z,20.37
2022-12-04T09:26:46.101Z,20.35
2022-12-04T09:27:46.118Z,20.37
2022-12-04T09:28:46.105Z,20.37
2022-12-04T09:29:46.083Z,20.35
2022-12-04T09:30:46.069Z,20.35
2022-12-04T09:31:46.161Z,20.35
2022-12-04T09:32:46.039Z,20.37
2022-12-04T09:33:46.046Z,20.37
2022-12-04T09:34:51.092Z,20.37
2022-12-04T09:35:46.048Z,20.35
2022-12-04T09:36:46.002Z,20.37
2022-12-04T09:37:46.003Z,20.38
2022-12-04T09:38:45.995Z,20.37
2022-12-04T09:39:45.925Z,20.37
2022-12-04T09:40:45.955Z,20.37
2022-12-04T09:41:45.971Z,20.37
2022-12-04T09:42:45.936Z,20.35
2022-12-04T09:43:45.942Z,20.37
2022-12-04T09:44:45.932Z,20.37
2022-12-04T09:45:45.920Z,20.35
2022-12-04T09:46:46.608Z,20.35
2022-12-04T09:47:45.897Z,20.37
2022-12-04T09:48:45.895Z,20.37
2022-12-04T09:49:45.925Z,20.34
2022-12-04T09:50:45.846Z,20.34
2022-12-04T09:51:45.873Z,20.33
2022-12-04T09:52:45.798Z,20.33
2022-12-04T09:53:45.838Z,20.31
2022-12-04T09:54:45.812Z,20.27
2022-12-04T09:55:45.769Z,20.27
2022-12-04T09:56:45.734Z,20.26
2022-12-04T09:57:45.840Z,20.25
2022-12-04T09:58:45.761Z,20.22
2022-12-04T09:59:45.805Z,20.23
2022-12-04T10:00:45.736Z,20.22
2022-12-04T10:01:45.741Z,20.20
2022-12-04T10:02:45.865Z,20.19
2022-12-04T10:03:45.913Z,20.17
2022-12-04T10:04:45.691Z,20.16
2022-12-04T10:05:45.668Z,20.17
2022-12-04T10:06:45.677Z,20.13
2022-12-04T10:07:45.770Z,20.13
2022-12-04T10:08:45.685Z,20.13
2022-12-04T10:09:45.670Z,20.10
2022-12-04T10:10:45.643Z,20.08
2022-12-04T10:11:45.648Z,20.07
2022-12-04T10:12:45.681Z,20.07
2022-12-04T10:13:45.691Z,20.07
2022-12-04T10:14:45.610Z,20.05
2022-12-04T10:15:45.716Z,20.05
2022-12-04T10:16:45.570Z,20.01
2022-12-04T10:17:45.582Z,20.02
2022-12-04T10:18:45.558Z,20.02
2022-12-04T10:19:45.531Z,20.02
2022-12-04T10:20:45.484Z,20.02
2022-12-04T10:21:45.482Z,20.04
2022-12-04T10:22:45.480Z,20.02
2022-12-04T10:23:45.481Z,20.02
2022-12-04T10:24:45.433Z,20.01
2022-12-04T10:25:45.461Z,20.00
2022-12-04T10:26:45.420Z,20.01
2022-12-04T10:27:45.420Z,19.95
2022-12-04T10:28:48.319Z,19.94
2022-12-04T10:29:45.558Z,19.90
2022-12-04T10:30:45.521Z,19.89
2022-12-04T10:31:45.485Z,19.86
2022-12-04T10:32:45.345Z,19.85
2022-12-04T10:33:45.350Z,19.82
2022-12-04T10:34:45.988Z,19.80
2022-12-04T10:35:45.352Z,19.79
2022-12-04T10:36:45.310Z,19.76
2022-12-04T10:37:45.313Z,19.75
2022-12-04T10:38:45.291Z,19.71
2022-12-04T10:39:45.286Z,19.71
2022-12-04T10:40:45.268Z,19.68
2022-12-04T10:41:45.302Z,19.68
2022-12-04T10:42:45.245Z,19.67
2022-12-04T10:43:45.255Z,19.64
2022-12-04T10:44:45.225Z,19.64
2022-12-04T10:45:45.238Z,19.64
2022-12-04T10:46:46.636Z,19.64
2022-12-04T10:47:45.242Z,19.62
2022-12-04T10:48:45.186Z,19.62
2022-12-04T10:49:45.185Z,19.61
2022-12-04T10:50:45.188Z,19.60
2022-12-04T10:51:45.178Z,19.60
2022-12-04T10:52:45.139Z,19.60
2022-12-04T10:53:45.149Z,19.61
2022-12-04T10:54:45.127Z,19.60
2022-12-04T10:55:45.157Z,19.57
2022-12-04T10:56:45.144Z,19.58
2022-12-04T10:57:45.127Z,19.57
2022-12-04T10:58:45.080Z,19.55
2022-12-04T10:59:45.082Z,19.55
2022-12-04T11:00:45.058Z,19.53
2022-12-04T11:01:45.116Z,19.53
2022-12-04T11:02:45.330Z,19.53
2022-12-04T11:03:45.144Z,19.53
2022-12-04T11:04:45.022Z,19.53
2022-12-04T11:05:45.020Z,19.53
2022-12-04T11:06:44.996Z,19.50
2022-12-04T11:07:45.122Z,19.52
2022-12-04T11:08:45.014Z,19.52
2022-12-04T11:09:44.986Z,19.52
2022-12-04T11:10:44.961Z,19.52
2022-12-04T11:11:44.960Z,19.52
2022-12-04T11:12:44.956Z,19.49
2022-12-04T11:13:44.958Z,19.50
2022-12-04T11:14:47.137Z,19.52
2022-12-04T11:15:45.052Z,19.50
2022-12-04T11:16:45.080Z,19.52
2022-12-04T11:17:44.927Z,19.52
2022-12-04T11:18:44.893Z,19.52
2022-12-04T11:19:44.879Z,19.53
2022-12-04T11:20:47.024Z,19.55
2022-12-04T11:21:44.872Z,19.55
2022-12-04T11:22:44.834Z,19.55
2022-12-04T11:23:44.864Z,19.55
2022-12-04T11:24:44.841Z,19.55
2022-12-04T11:25:44.846Z,19.55
2022-12-04T11:26:44.796Z,19.55
2022-12-04T11:27:45.524Z,19.57
2022-12-04T11:28:44.779Z,19.57
2022-12-04T11:29:44.796Z,19.57
2022-12-04T11:30:44.774Z,19.57
2022-12-04T11:31:44.817Z,19.55
2022-12-04T11:32:44.731Z,19.55
2022-12-04T11:33:44.733Z,19.53
2022-12-04T11:34:44.710Z,19.55
2022-12-04T11:35:44.712Z,19.57
2022-12-04T11:36:44.715Z,19.53
2022-12-04T11:37:45.556Z,19.53
2022-12-04T11:38:44.670Z,19.55
2022-12-04T11:39:45.002Z,19.57
2022-12-04T11:40:44.688Z,19.55
2022-12-04T11:41:44.648Z,19.57
2022-12-04T11:42:44.643Z,19.53
2022-12-04T11:43:44.650Z,19.55
2022-12-04T11:44:44.617Z,19.58
2022-12-04T11:45:44.607Z,19.57
2022-12-04T11:46:44.754Z,19.55
2022-12-04T11:47:44.630Z,19.55
2022-12-04T11:48:44.586Z,19.57
2022-12-04T11:49:44.575Z,19.57
2022-12-04T11:50:44.543Z,19.58
2022-12-04T11:51:44.571Z,19.61
2022-12-04T11:52:44.524Z,19.62
2022-12-04T11:53:44.536Z,19.62
2022-12-04T11:54:44.517Z,19.65
2022-12-04T11:55:44.510Z,19.65
2022-12-04T11:56:44.484Z,19.67
2022-12-04T11:57:44.527Z,19.68
2022-12-04T11:58:44.463Z,19.71
2022-12-04T11:59:44.480Z,19.71
2022-12-04T12:00:44.442Z,19.72
2022-12-04T12:01:44.710Z,19.76
2022-12-04T12:02:44.579Z,19.76
2022-12-04T12:03:44.533Z,19.78
2022-12-04T12:04:44.395Z,19.78
2022-12-04T12:05:44.397Z,19.76
2022-12-04T12:06:44.375Z,19.79
2022-12-04T12:07:44.451Z,19.79
2022-12-04T12:08:44.353Z,19.79
2022-12-04T12:09:44.381Z,19.80
2022-12-04T12:10:44.976Z,19.82
2022-12-04T12:11:44.347Z,19.82
2022-12-04T12:12:44.311Z,19.80
2022-12-04T12:13:44.319Z,19.80
2022-12-04T12:14:44.289Z,19.82
2022-12-04T12:15:44.320Z,19.82
2022-12-04T12:16:48.361Z,19.83
2022-12-04T12:17:44.282Z,19.83
2022-12-04T12:18:44.246Z,19.82
2022-12-04T12:19:44.304Z,19.83
2022-12-04T12:20:44.226Z,19.85
2022-12-04T12:21:44.321Z,19.85
2022-12-04T12:22:44.206Z,19.86
2022-12-04T12:23:44.206Z,19.85
2022-12-04T12:24:46.821Z,19.86
2022-12-04T12:25:50.375Z,19.87
2022-12-04T12:26:44.178Z,19.87
2022-12-04T12:27:44.169Z,19.86
2022-12-04T12:28:44.143Z,19.87
2022-12-04T12:29:44.156Z,19.89
2022-12-04T12:30:44.121Z,19.89
2022-12-04T12:31:44.238Z,19.86
2022-12-04T12:32:44.155Z,19.89
2022-12-04T12:33:44.119Z,19.90
2022-12-04T12:34:44.079Z,19.90
2022-12-04T12:35:46.193Z,19.90
2022-12-04T12:36:44.219Z,19.89
2022-12-04T12:37:44.078Z,19.92
2022-12-04T12:38:44.029Z,19.92
2022-12-04T12:39:44.034Z,19.94
2022-12-04T12:40:44.006Z,19.92
2022-12-04T12:41:44.018Z,19.90
2022-12-04T12:42:44.079Z,19.95
2022-12-04T12:43:44.123Z,19.94
2022-12-04T12:44:43.992Z,19.95
2022-12-04T12:45:44.065Z,19.95
2022-12-04T12:46:43.963Z,19.94
2022-12-04T12:47:43.936Z,19.97
2022-12-04T12:48:43.943Z,19.97
2022-12-04T12:49:43.937Z,19.97
2022-12-04T12:50:43.925Z,19.97
2022-12-04T12:51:43.905Z,19.98
2022-12-04T12:52:44.306Z,19.97